Time;durP1;ratioP1;P1;durP2;ratioP2;P2;SDS_P1;SDS_P2;PMS_P1;PMS_P2;Temp;Humidity;BMP_temperature;BMP_pressure;BME280_temperature;BME280_humidity;BME280_pressure;Samples;Min_cycle;Max_cycle;Signal;HPM_P1;HPM_P2
2021/03/10 00:00:13;;;;;;;123.47;74.27;;;102.50;2227.20;;;;;;4791085;29;20042;-86
2021/03/10 00:02:38;;;;;;;119.17;76.73;;;77.70;2227.20;;;;;;4791686;29;20579;-83
2021/03/10 00:05:06;;;;;;;145.77;87.30;;;77.70;2227.20;;;;;;4807619;29;20132;-84
2021/03/10 00:07:32;;;;;;;109.17;64.40;;;77.70;2227.20;;;;;;4790875;29;20042;-83
2021/03/10 00:09:58;;;;;;;106.27;66.27;;;102.40;2227.20;;;;;;4791245;29;20027;-84
2021/03/10 00:12:24;;;;;;;113.10;68.87;;;102.40;2227.20;;;;;;4791204;29;20480;-87
2021/03/10 00:14:50;;;;;;;112.13;65.90;;;102.40;2227.20;;;;;;4791294;29;20038;-84
2021/03/10 00:17:16;;;;;;;119.77;74.70;;;102.40;2227.20;;;;;;4791277;29;20203;-93
2021/03/10 00:19:45;;;;;;;108.27;67.40;;;102.40;2227.20;;;;;;4791321;29;20091;-84
2021/03/10 00:22:11;;;;;;;129.17;75.60;;;77.70;2227.20;;;;;;4807026;29;20031;-84
2021/03/10 00:24:40;;;;;;;100.70;64.67;;;77.70;2227.20;;;;;;4791075;29;20133;-85
2021/03/10 00:27:24;;;;;;;118.80;74.90;;;77.60;2227.20;;;;;;4790785;29;20037;-84
2021/03/10 00:29:58;;;;;;;103.43;64.83;;;77.70;2227.20;;;;;;4790148;29;20030;-84
2021/03/10 00:32:26;;;;;;;115.10;70.60;;;77.70;2227.20;;;;;;4790560;29;20038;-85
2021/03/10 00:34:52;;;;;;;101.77;61.10;;;77.60;2227.20;;;;;;4806885;29;20489;-85
2021/03/10 00:37:19;;;;;;;104.90;59.80;;;77.20;2227.20;;;;;;4791005;29;20034;-84
2021/03/10 00:39:45;;;;;;;92.40;53.53;;;77.00;2227.20;;;;;;4790885;29;20553;-86
2021/03/10 00:42:12;;;;;;;106.67;59.27;;;77.20;2227.20;;;;;;4790856;29;20085;-84
2021/03/10 00:44:38;;;;;;;107.60;66.43;;;77.40;2227.20;;;;;;4790980;29;20107;-84
2021/03/10 00:47:05;;;;;;;117.83;70.17;;;77.40;2227.20;;;;;;4790926;29;20485;-84
2021/03/10 00:49:30;;;;;;;166.43;89.53;;;77.50;2227.20;;;;;;4790866;29;20031;-83
2021/03/10 00:51:56;;;;;;;122.47;73.27;;;77.60;2227.20;;;;;;4791048;29;20067;-84
2021/03/10 00:54:22;;;;;;;126.70;72.47;;;77.60;2227.20;;;;;;4790873;29;20031;-84
2021/03/10 00:56:48;;;;;;;110.10;67.20;;;77.70;2227.20;;;;;;4790668;29;20042;-84
2021/03/10 00:59:14;;;;;;;129.93;73.97;;;77.70;2227.20;;;;;;4790621;29;20421;-84
2021/03/10 01:01:40;;;;;;;144.07;82.67;;;77.70;2227.20;;;;;;4790856;29;20058;-84
2021/03/10 01:04:06;;;;;;;155.57;85.07;;;77.60;2227.20;;;;;;4790564;29;20067;-83
2021/03/10 01:06:31;;;;;;;156.83;87.00;;;77.70;2227.20;;;;;;4790293;29;20518;-84
2021/03/10 01:09:00;;;;;;;157.87;86.90;;;77.60;2227.20;;;;;;4790864;29;20068;-84
2021/03/10 01:11:26;;;;;;;173.17;98.03;;;77.60;2227.20;;;;;;4790897;29;20543;-83
2021/03/10 01:13:52;;;;;;;163.40;89.47;;;77.60;2227.20;;;;;;4790636;29;20126;-84
2021/03/10 01:16:17;;;;;;;135.63;79.43;;;77.40;2227.20;;;;;;4790851;29;20027;-83
2021/03/10 01:18:46;;;;;;;117.63;71.07;;;77.50;2227.20;;;;;;4790664;29;20031;-83
2021/03/10 01:21:12;;;;;;;132.57;78.03;;;77.60;2227.20;;;;;;4790729;29;20034;-84
2021/03/10 01:23:37;;;;;;;113.87;66.43;;;77.60;2227.20;;;;;;4790362;29;20039;-85
2021/03/10 01:26:03;;;;;;;127.80;71.30;;;77.60;2227.20;;;;;;4790833;29;20438;-84
2021/03/10 01:28:29;;;;;;;118.43;65.53;;;77.70;2227.20;;;;;;4790641;29;20032;-85
2021/03/10 01:30:55;;;;;;;130.67;72.63;;;77.70;2227.20;;;;;;4791157;29;20027;-84
2021/03/10 01:33:28;;;;;;;127.17;72.23;;;77.60;2227.20;;;;;;4791719;29;20077;-86
2021/03/10 01:35:54;;;;;;;113.97;66.50;;;77.60;2227.20;;;;;;4792361;29;20035;-84
2021/03/10 01:38:26;;;;;;;90.50;52.00;;;77.60;2227.20;;;;;;4791883;29;20098;-84
2021/03/10 01:40:51;;;;;;;91.20;53.60;;;77.30;2227.20;;;;;;4809646;29;20110;-85
2021/03/10 01:43:17;;;;;;;85.40;48.97;;;77.30;2227.20;;;;;;4796005;29;20062;-83
2021/03/10 01:45:45;;;;;;;82.93;48.97;;;77.40;2227.20;;;;;;4795183;29;20027;-85
2021/03/10 01:48:19;;;;;;;89.43;55.53;;;77.50;2227.20;;;;;;4793984;29;20039;-84
2021/03/10 01:51:04;;;;;;;101.53;65.33;;;77.50;2227.20;;;;;;4794346;29;20027;-84
2021/03/10 01:53:30;;;;;;;114.83;78.03;;;77.60;2227.20;;;;;;4794857;29;20066;-85
2021/03/10 01:55:57;;;;;;;71.63;44.60;;;77.60;2227.20;;;;;;4799560;29;20145;-84
2021/03/10 01:58:22;;;;;;;68.03;42.10;;;77.60;2227.20;;;;;;4797072;29;20038;-84
2021/03/10 02:00:54;;;;;;;64.17;40.70;;;77.60;2227.20;;;;;;4796124;29;20027;-84
2021/03/10 02:03:20;;;;;;;56.47;36.20;;;77.40;2227.20;;;;;;4794235;29;20038;-84
2021/03/10 02:05:52;;;;;;;73.43;42.53;;;77.30;2227.20;;;;;;4794194;29;20764;-91
2021/03/10 02:08:39;;;;;;;45.63;29.45;;;77.40;2227.20;;;;;;4794057;29;20035;-84
2021/03/10 02:11:15;;;;;;;47.60;27.50;;;77.40;2227.20;;;;;;4793668;29;20084;-84
2021/03/10 02:14:04;;;;;;;51.23;33.73;;;77.50;2227.20;;;;;;4793795;29;20185;-84
2021/03/10 02:16:42;;;;;;;40.37;25.50;;;77.30;2227.20;;;;;;4809809;29;20034;-85
2021/03/10 02:19:27;;;;;;;42.43;25.83;;;77.20;2227.20;;;;;;4809613;29;20114;-84
2021/03/10 02:22:27;;;;;;;42.20;25.83;;;77.40;2227.20;;;;;;4793455;29;20038;-86
2021/03/10 02:25:25;;;;;;;42.23;28.10;;;77.40;2227.20;;;;;;4793401;29;20038;-84
2021/03/10 02:27:52;;;;;;;36.67;24.27;;;77.50;2227.20;;;;;;4793048;29;20034;-85
2021/03/10 02:30:39;;;;;;;28.80;18.20;;;77.50;2227.20;;;;;;4792949;29;20088;-92
2021/03/10 02:33:11;;;;;;;29.93;21.13;;;77.50;2227.20;;;;;;4793015;29;20038;-86
2021/03/10 02:35:54;;;;;;;30.00;19.73;;;77.50;2227.20;;;;;;4792958;29;20059;-85
2021/03/10 02:38:27;;;;;;;19.52;14.15;;;77.60;2227.20;;;;;;4792548;29;20035;-85
2021/03/10 02:41:00;;;;;;;22.53;13.97;;;102.40;2227.20;;;;;;4793072;29;20031;-85
2021/03/10 02:43:28;;;;;;;24.67;15.67;;;77.70;2227.20;;;;;;4784074;24;20071;-84
2021/03/10 02:45:55;;;;;;;27.10;16.77;;;77.40;2227.20;;;;;;4774497;30;20047;-85
2021/03/10 02:48:23;;;;;;;21.63;14.43;;;77.50;2227.20;;;;;;4775289;30;20046;-85
2021/03/10 02:50:49;;;;;;;19.37;13.20;;;77.50;2227.20;;;;;;4775193;30;20062;-85
2021/03/10 02:53:16;;;;;;;25.20;14.53;;;77.70;2227.20;;;;;;4773882;30;20058;-85
2021/03/10 02:55:42;;;;;;;25.27;16.63;;;77.50;2227.20;;;;;;4774245;30;20043;-85
2021/03/10 02:58:12;;;;;;;19.13;14.00;;;77.50;2227.20;;;;;;4774592;30;20050;-85
2021/03/10 03:00:41;;;;;;;29.70;18.67;;;77.50;2227.20;;;;;;4775038;30;20031;-85
2021/03/10 03:03:07;;;;;;;23.07;14.67;;;77.70;2227.20;;;;;;4774660;30;20133;-84
2021/03/10 03:05:36;;;;;;;16.20;11.70;;;77.50;2227.20;;;;;;4775077;30;20479;-84
2021/03/10 03:08:18;;;;;;;18.43;11.87;;;77.40;2227.20;;;;;;4775416;30;20088;-84
2021/03/10 03:10:47;;;;;;;19.70;12.97;;;77.50;2227.20;;;;;;4776432;30;20058;-85
2021/03/10 03:13:17;;;;;;;20.90;13.83;;;77.40;2227.20;;;;;;4785921;30;20042;-83
2021/03/10 03:15:53;;;;;;;20.47;13.80;;;77.40;2227.20;;;;;;4806306;30;20054;-85
2021/03/10 03:18:20;;;;;;;25.43;15.90;;;77.40;2227.20;;;;;;4783992;30;20035;-87
2021/03/10 03:20:46;;;;;;;24.63;15.03;;;77.40;2227.20;;;;;;4782992;30;20069;-84
2021/03/10 03:23:12;;;;;;;33.50;23.30;;;77.40;2227.20;;;;;;4783626;30;20043;-85
2021/03/10 03:25:42;;;;;;;25.37;15.87;;;77.30;2227.20;;;;;;4785534;30;20024;-84
2021/03/10 03:28:12;;;;;;;21.87;16.00;;;77.20;2227.20;;;;;;4801339;30;20096;-83
2021/03/10 03:30:39;;;;;;;20.23;13.37;;;77.20;2227.20;;;;;;4782679;30;20035;-84
2021/03/10 03:33:13;;;;;;;22.80;13.27;;;77.20;2227.20;;;;;;4793408;30;20027;-85
2021/03/10 03:35:41;;;;;;;16.33;10.73;;;77.40;2227.20;;;;;;4777701;30;20546;-85
2021/03/10 03:38:10;;;;;;;16.37;10.83;;;77.40;2227.20;;;;;;4777665;30;20043;-84
2021/03/10 03:40:49;;;;;;;11.47;8.93;;;77.40;2227.20;;;;;;4775390;30;20042;-84
2021/03/10 03:43:16;;;;;;;13.30;9.13;;;77.40;2227.20;;;;;;4773596;30;20059;-85
2021/03/10 03:45:42;;;;;;;16.93;11.90;;;77.40;2227.20;;;;;;4790394;30;20062;-84
2021/03/10 03:48:08;;;;;;;15.77;8.87;;;77.40;2227.20;;;;;;4773997;30;20071;-84
2021/03/10 03:50:34;;;;;;;13.67;9.83;;;77.50;2227.20;;;;;;4773719;30;20122;-84
2021/03/10 03:53:00;;;;;;;14.50;9.60;;;77.40;2227.20;;;;;;4788561;30;20078;-84
2021/03/10 03:55:32;;;;;;;14.57;9.37;;;77.30;2227.20;;;;;;4773870;30;20401;-84
2021/03/10 03:58:04;;;;;;;19.00;11.20;;;77.40;2227.20;;;;;;4773777;30;20032;-84
2021/03/10 04:00:30;;;;;;;17.75;10.27;;;77.40;2227.20;;;;;;4774097;30;20038;-83
2021/03/10 04:03:00;;;;;;;14.03;9.30;;;77.40;2227.20;;;;;;4773491;30;20177;-83
2021/03/10 04:05:26;;;;;;;14.53;8.97;;;77.40;2227.20;;;;;;4773136;30;20481;-84
2021/03/10 04:08:08;;;;;;;13.03;9.73;;;77.40;2227.20;;;;;;4773920;30;20028;-83
2021/03/10 04:10:36;;;;;;;12.53;9.33;;;77.40;2227.20;;;;;;4773360;30;20092;-84
2021/03/10 04:13:03;;;;;;;9.67;7.63;;;77.40;2227.20;;;;;;4772768;30;20324;-83
2021/03/10 04:15:36;;;;;;;15.33;8.90;;;77.40;2227.20;;;;;;4773306;30;20027;-83
2021/03/10 04:18:02;;;;;;;16.63;11.13;;;77.40;2227.20;;;;;;4773294;30;20027;-83
2021/03/10 04:20:34;;;;;;;15.57;9.50;;;77.30;2227.20;;;;;;4772903;30;20142;-83
2021/03/10 04:23:15;;;;;;;16.67;10.32;;;77.40;2227.20;;;;;;4773197;30;20172;-83
2021/03/10 04:25:52;;;;;;;16.40;10.23;;;77.40;2227.20;;;;;;4772666;30;20035;-83
2021/03/10 04:28:18;;;;;;;17.23;9.80;;;77.40;2227.20;;;;;;4773091;30;20034;-84
2021/03/10 04:30:47;;;;;;;14.20;10.77;;;77.30;2227.20;;;;;;4773277;30;20035;-87
2021/03/10 04:33:19;;;;;;;12.87;9.20;;;77.30;2227.20;;;;;;4773318;30;20472;-83
2021/03/10 04:35:44;;;;;;;14.82;10.13;;;77.30;2227.20;;;;;;4772836;30;20096;-82
2021/03/10 04:38:10;;;;;;;21.03;12.73;;;77.20;2227.20;;;;;;4774398;30;20043;-83
2021/03/10 04:40:36;;;;;;;14.77;9.27;;;77.20;2227.20;;;;;;4774303;30;20023;-83
2021/03/10 04:43:02;;;;;;;18.37;11.30;;;77.10;2227.20;;;;;;4773761;30;20059;-82
2021/03/10 04:45:28;;;;;;;15.10;8.30;;;77.10;2227.20;;;;;;4773003;30;20141;-83
2021/03/10 04:47:53;;;;;;;13.27;8.80;;;77.20;2227.20;;;;;;4773009;30;20067;-84
2021/03/10 04:50:19;;;;;;;14.10;8.87;;;77.30;2227.20;;;;;;4772781;30;20477;-83
2021/03/10 04:52:45;;;;;;;16.20;10.30;;;77.20;2227.20;;;;;;4773163;30;20200;-84
2021/03/10 04:55:11;;;;;;;18.17;11.83;;;77.30;2227.20;;;;;;4773944;30;20036;-83
2021/03/10 04:57:43;;;;;;;15.87;10.27;;;77.30;2227.20;;;;;;4773378;30;20031;-85
2021/03/10 05:00:25;;;;;;;37.33;20.13;;;77.20;2227.20;;;;;;4773401;30;20042;-84
2021/03/10 05:02:51;;;;;;;25.93;15.03;;;77.10;2227.20;;;;;;4773278;30;20042;-83
2021/03/10 05:05:17;;;;;;;20.67;13.00;;;77.10;2227.20;;;;;;4773276;30;20043;-84
2021/03/10 05:07:43;;;;;;;21.43;13.03;;;77.00;2227.20;;;;;;4773433;30;20113;-85
2021/03/10 05:10:09;;;;;;;21.17;14.70;;;77.00;2227.20;;;;;;4758467;30;20035;-84
2021/03/10 05:12:35;;;;;;;22.47;14.47;;;77.10;2227.20;;;;;;4773548;30;20027;-84
2021/03/10 05:15:02;;;;;;;20.63;12.47;;;77.20;2227.20;;;;;;4772719;29;20031;-83
2021/03/10 05:17:28;;;;;;;17.43;10.90;;;77.20;2227.20;;;;;;4775485;30;20455;-84
2021/03/10 05:19:54;;;;;;;27.50;15.07;;;77.10;2227.20;;;;;;4776054;30;20067;-84
2021/03/10 05:22:21;;;;;;;27.70;16.30;;;77.10;2227.20;;;;;;4775857;30;20114;-84
2021/03/10 05:24:50;;;;;;;29.73;18.07;;;77.00;2227.20;;;;;;4775896;30;20070;-83
2021/03/10 05:27:16;;;;;;;47.97;26.50;;;77.00;2227.20;;;;;;4775987;30;20028;-84
2021/03/10 05:29:42;;;;;;;62.27;39.00;;;76.90;2227.20;;;;;;4775812;30;20126;-83
2021/03/10 05:32:08;;;;;;;61.40;36.83;;;76.90;2227.20;;;;;;4775572;30;20068;-84
2021/03/10 05:34:34;;;;;;;57.40;39.30;;;76.80;2227.20;;;;;;4775760;30;20097;-83
2021/03/10 05:37:00;;;;;;;57.43;37.93;;;76.80;2227.20;;;;;;4775753;30;20509;-83
2021/03/10 05:39:27;;;;;;;64.13;43.07;;;77.00;2227.20;;;;;;4775693;30;20043;-85
2021/03/10 05:41:53;;;;;;;62.60;38.93;;;77.00;2227.20;;;;;;4775781;29;20409;-84
2021/03/10 05:44:19;;;;;;;37.20;21.83;;;77.10;2227.20;;;;;;4775289;30;20130;-86
2021/03/10 05:46:44;;;;;;;30.83;20.13;;;77.10;2227.20;;;;;;4775438;30;20122;-84
2021/03/10 05:49:13;;;;;;;27.93;18.07;;;76.90;2227.20;;;;;;4775880;30;20035;-85
2021/03/10 05:51:42;;;;;;;41.10;23.53;;;76.90;2227.20;;;;;;4775672;30;20481;-86
2021/03/10 05:54:07;;;;;;;35.10;20.20;;;77.00;2227.20;;;;;;4775377;30;20145;-83
2021/03/10 05:56:34;;;;;;;31.30;18.10;;;77.00;2227.20;;;;;;4775615;30;20086;-84
2021/03/10 05:59:04;;;;;;;39.77;22.90;;;77.00;2227.20;;;;;;4775322;30;20031;-83
2021/03/10 06:01:30;;;;;;;50.90;25.80;;;77.00;2227.20;;;;;;4791521;29;20031;-83
2021/03/10 06:04:01;;;;;;;44.20;24.23;;;77.10;2227.20;;;;;;4765349;30;20058;-83
2021/03/10 06:06:37;;;;;;;46.40;26.13;;;77.20;2227.20;;;;;;4758377;30;20039;-83
2021/03/10 06:09:32;;;;;;;52.73;29.27;;;77.10;2227.20;;;;;;4758558;30;20031;-84
2021/03/10 06:12:03;;;;;;;51.27;27.43;;;77.20;2227.20;;;;;;4758591;30;20047;-83
2021/03/10 06:14:30;;;;;;;55.03;35.67;;;77.20;2227.20;;;;;;4784581;29;20023;-83
2021/03/10 06:17:14;;;;;;;54.73;36.00;;;77.30;2227.20;;;;;;4794540;29;20489;-83
2021/03/10 06:19:55;;;;;;;57.90;36.77;;;77.40;2227.20;;;;;;4795400;29;20027;-85
2021/03/10 06:22:41;;;;;;;52.50;30.30;;;77.40;2227.20;;;;;;4799421;29;20484;-84
2021/03/10 06:25:32;;;;;;;43.17;31.50;;;77.40;2227.20;;;;;;4799984;29;20030;-84
2021/03/10 06:28:38;;;;;;;49.30;29.23;;;77.30;2227.20;;;;;;4789033;29;20046;-85
2021/03/10 06:31:18;;;;;;;74.33;42.10;;;77.30;2227.20;;;;;;4814431;29;20388;-84
2021/03/10 06:33:57;;;;;;;70.07;38.33;;;77.30;2227.20;;;;;;4815138;29;20035;-84
2021/03/10 06:36:51;;;;;;;;;;;;;;;;;;;;;
2021/03/10 06:39:30;;;;;;;63.73;39.93;;;77.20;2227.20;;;;;;4796664;30;20124;-83
2021/03/10 06:41:59;;;;;;;55.87;37.43;;;77.10;2227.20;;;;;;4777580;30;20073;-85
2021/03/10 06:44:33;;;;;;;96.27;56.83;;;77.10;2227.20;;;;;;4779136;30;20041;-84
2021/03/10 06:47:00;;;;;;;48.07;32.77;;;77.00;2227.20;;;;;;4779952;30;20040;-88
2021/03/10 06:49:32;;;;;;;36.70;24.70;;;77.10;2227.20;;;;;;4780706;30;20035;-85
2021/03/10 06:52:22;;;;;;;43.63;30.80;;;77.20;2227.20;;;;;;4764861;30;20039;-84
2021/03/10 06:55:01;;;;;;;72.33;47.67;;;77.20;2227.20;;;;;;4780132;30;20596;-87
2021/03/10 06:57:45;;;;;;;42.50;27.37;;;77.30;2227.20;;;;;;4778291;30;20054;-86
2021/03/10 07:00:23;;;;;;;57.97;37.47;;;77.40;2227.20;;;;;;4779508;30;20135;-84
2021/03/10 07:02:52;;;;;;;63.00;40.03;;;77.40;2227.20;;;;;;4777856;30;20035;-84
2021/03/10 07:05:18;;;;;;;85.83;54.03;;;77.40;2227.20;;;;;;4779937;30;20039;-83
2021/03/10 07:07:48;;;;;;;107.60;70.90;;;77.60;2227.20;;;;;;4765242;30;20026;-84
2021/03/10 07:10:14;;;;;;;97.13;60.53;;;77.40;2227.20;;;;;;4779800;30;20062;-85
2021/03/10 07:12:40;;;;;;;92.83;60.27;;;77.50;2227.20;;;;;;4779986;30;20469;-84
2021/03/10 07:15:23;;;;;;;108.20;71.90;;;77.50;2227.20;;;;;;4786142;30;20035;-83
2021/03/10 07:17:50;;;;;;;244.75;167.93;;;77.40;2227.20;;;;;;4772636;30;20035;-83
2021/03/10 07:20:17;;;;;;;119.27;69.60;;;77.30;2227.20;;;;;;4764565;30;20031;-86
2021/03/10 07:22:57;;;;;;;132.00;78.53;;;77.30;2227.20;;;;;;4781540;29;20050;-87
2021/03/10 07:25:34;;;;;;;65.80;42.43;;;77.30;2227.20;;;;;;4776491;30;20028;-83
2021/03/10 07:28:17;;;;;;;65.20;42.23;;;77.20;2227.20;;;;;;4759676;30;20032;-87
2021/03/10 07:30:47;;;;;;;90.80;48.10;;;77.20;2227.20;;;;;;4783108;29;20054;-85
2021/03/10 07:33:21;;;;;;;92.23;51.60;;;77.30;2227.20;;;;;;4796933;29;20042;-84
2021/03/10 07:35:49;;;;;;;122.47;65.00;;;77.40;2227.20;;;;;;4797392;29;20084;-85
2021/03/10 07:41:05;;;;;;;125.07;78.60;;;77.30;2227.20;;;;;;4953848;24;20066;-85
2021/03/10 07:43:46;;;;;;;105.10;72.97;;;77.30;2227.20;;;;;;4775256;30;20059;-84
2021/03/10 07:46:34;;;;;;;70.93;45.50;;;77.20;2227.20;;;;;;4793636;30;20149;-86
2021/03/10 07:49:14;;;;;;;75.77;50.13;;;77.20;2227.20;;;;;;4797195;29;20030;-90
2021/03/10 07:51:41;;;;;;;79.00;51.30;;;77.30;2227.20;;;;;;4803189;29;20034;-89
2021/03/10 07:54:30;;;;;;;88.27;62.23;;;77.40;2227.20;;;;;;4805378;29;20043;-88
2021/03/10 07:57:19;;;;;;;80.27;46.03;;;77.50;2227.20;;;;;;4823611;29;20063;-85
2021/03/10 08:00:12;;;;;;;74.77;42.27;;;77.30;2227.20;;;;;;4826251;29;20043;-83
2021/03/10 08:02:48;;;;;;;89.33;52.60;;;77.30;2227.20;;;;;;4796739;29;20050;-90
2021/03/10 08:08:10;;;;;;;80.13;50.17;;;77.30;2227.20;;;;;;4822217;24;20055;-91
2021/03/10 08:10:55;;;;;;;88.93;57.23;;;77.40;2227.20;;;;;;4815769;29;20062;-90
2021/03/10 08:18:58;;;;;;;73.47;46.40;;;77.40;2227.20;;;;;;4830777;24;20094;-87
2021/03/10 08:21:46;;;;;;;68.50;44.33;;;77.50;2227.20;;;;;;4798497;29;20039;-88
2021/03/10 08:24:19;;;;;;;61.90;39.20;;;77.40;2227.20;;;;;;4792205;30;20106;-90
2021/03/10 08:27:04;;;;;;;51.50;34.13;;;77.50;2227.20;;;;;;4772235;30;20104;-91
2021/03/10 08:30:06;;;;;;;70.27;46.13;;;77.60;2227.20;;;;;;4796601;24;20054;-91
2021/03/10 08:32:42;;;;;;;85.38;54.30;;;77.50;2227.20;;;;;;4788986;29;20069;-91
2021/03/10 08:39:02;;;;;;;64.77;41.63;;;77.50;2227.20;;;;;;4967461;24;20079;-91
2021/03/10 08:41:28;;;;;;;48.67;31.87;;;77.70;2227.20;;;;;;4778786;30;20488;-90
2021/03/10 08:44:03;;;;;;;89.17;55.23;;;102.40;2227.20;;;;;;4778819;30;20096;-91
2021/03/10 08:46:49;;;;;;;81.20;52.40;;;102.40;2227.20;;;;;;4791181;30;20100;-89
2021/03/10 08:49:33;;;;;;;62.23;40.07;;;102.40;2227.20;;;;;;4774477;30;20067;-89
2021/03/10 08:52:06;;;;;;;40.00;28.47;;;102.80;2227.20;;;;;;4775727;30;20034;-90
2021/03/10 08:59:40;;;;;;;;;;;102.50;2227.20;;;;;;4809562;29;20062;-88
2021/03/10 09:02:06;;;;;;;48.90;31.83;;;102.50;2227.20;;;;;;4796883;29;19909;-87
2021/03/10 09:04:32;;;;;;;96.83;63.53;;;102.50;2227.20;;;;;;4794915;29;20051;-86
2021/03/10 09:07:01;;;;;;;85.13;52.60;;;102.50;2227.20;;;;;;4796908;29;20052;-83
2021/03/10 09:09:32;;;;;;;78.13;50.17;;;102.40;2227.20;;;;;;4799431;29;20031;-87
2021/03/10 09:11:58;;;;;;;84.53;54.23;;;102.50;2227.20;;;;;;4794660;29;20062;-87
2021/03/10 09:14:29;;;;;;;60.50;40.53;;;102.50;2227.20;;;;;;4796365;29;20079;-87
2021/03/10 09:17:13;;;;;;;60.20;37.63;;;102.50;2227.20;;;;;;4795173;29;20035;-86
2021/03/10 09:19:54;;;;;;;69.07;43.43;;;102.50;2227.20;;;;;;4803890;30;20077;-88
2021/03/10 09:22:38;;;;;;;76.50;48.43;;;102.60;2227.20;;;;;;4802513;30;20050;-85
2021/03/10 09:25:14;;;;;;;79.57;54.77;;;102.60;2227.20;;;;;;4802501;29;20039;-93
2021/03/10 09:27:43;;;;;;;86.17;53.37;;;102.60;2227.20;;;;;;4796918;29;20035;-92
2021/03/10 09:30:31;;;;;;;76.33;51.63;;;102.70;2227.20;;;;;;4795984;29;20031;-91
2021/03/10 09:32:57;;;;;;;76.90;50.93;;;102.60;2227.20;;;;;;4795382;29;20026;-91
2021/03/10 09:38:53;;;;;;;70.10;44.70;;;102.80;2227.20;;;;;;4802034;24;20081;-90
2021/03/10 09:51:22;;;;;;;77.83;49.63;;;103.00;2227.20;;;;;;5339585;24;20559;-88
2021/03/10 09:53:51;;;;;;;79.80;51.37;;;103.10;2227.20;;;;;;4806292;24;20211;-88
2021/03/10 09:56:24;;;;;;;71.57;50.17;;;103.10;2227.20;;;;;;4792677;29;20043;-89
2021/03/10 09:59:00;;;;;;;65.30;43.22;;;103.10;2227.20;;;;;;4776171;30;20035;-88
2021/03/10 10:01:30;;;;;;;59.97;39.60;;;103.20;2227.20;;;;;;4775829;29;20560;-88
2021/03/10 10:03:59;;;;;;;54.73;37.50;;;103.20;2227.20;;;;;;4775407;30;20035;-89
2021/03/10 10:06:30;;;;;;;52.30;34.90;;;103.30;2227.20;;;;;;4740965;30;20058;-89
2021/03/10 10:09:05;;;;;;;55.13;34.93;;;103.20;2227.20;;;;;;4733260;30;20044;-88
2021/03/10 10:37:11;;;;;;;72.23;43.13;;;103.00;2227.20;;;;;;4810331;24;20051;-88
2021/03/10 10:42:13;;;;;;;75.10;45.53;;;103.00;2227.20;;;;;;4802222;29;20085;-85
2021/03/10 10:44:48;;;;;;;80.25;53.25;;;103.00;2227.20;;;;;;4799986;24;20059;-91
2021/03/10 10:49:55;;;;;;;80.87;50.00;;;103.00;2227.20;;;;;;4801825;24;20056;-85
2021/03/10 10:52:30;;;;;;;92.70;52.47;;;103.20;2227.20;;;;;;4786496;30;20493;-86
2021/03/10 10:54:55;;;;;;;82.17;47.90;;;103.00;2227.20;;;;;;4761016;30;20083;-86
2021/03/10 10:57:21;;;;;;;96.60;60.33;;;103.00;2227.20;;;;;;4775875;30;20032;-85
2021/03/10 10:59:47;;;;;;;73.17;45.27;;;103.00;2227.20;;;;;;4773834;30;20148;-85
2021/03/10 11:02:19;;;;;;;98.70;59.70;;;102.90;2227.20;;;;;;4773773;30;20028;-87
2021/03/10 11:04:51;;;;;;;70.43;47.70;;;102.90;2227.20;;;;;;4794387;30;20140;-87
2021/03/10 11:10:05;;;;;;;69.13;42.00;;;103.00;2227.20;;;;;;4777139;24;20058;-90
2021/03/10 11:12:34;;;;;;;65.43;39.17;;;103.10;2227.20;;;;;;4804199;24;20443;-87
2021/03/10 11:25:11;;;;;;;59.25;37.88;;;103.00;2227.20;;;;;;4793044;30;20412;-87
2021/03/10 11:27:37;;;;;;;87.83;58.23;;;103.10;2227.20;;;;;;4775817;24;20055;-89
2021/03/10 11:33:44;;;;;;;50.53;34.43;;;103.20;2227.20;;;;;;4854567;24;20055;-88
2021/03/10 11:36:13;;;;;;;77.73;46.17;;;103.10;2227.20;;;;;;4753715;30;20055;-87
2021/03/10 11:38:48;;;;;;;71.20;45.90;;;103.20;2227.20;;;;;;4753504;30;20047;-88
2021/03/10 11:41:29;;;;;;;75.93;44.37;;;103.10;2227.20;;;;;;4748884;30;20040;-87
2021/03/10 11:44:10;;;;;;;72.37;46.77;;;103.00;2227.20;;;;;;4752629;30;20040;-87
2021/03/10 11:46:42;;;;;;;55.80;34.67;;;103.00;2227.20;;;;;;4819154;24;20111;-86
2021/03/10 11:49:24;;;;;;;65.70;39.70;;;102.70;2227.20;;;;;;4792884;30;20034;-91
2021/03/10 11:52:00;;;;;;;;;;;;;;;;;;;;;
2021/03/10 11:54:42;;;;;;;77.53;46.53;;;102.80;2227.20;;;;;;4790890;30;20130;-92
2021/03/10 11:57:20;;;;;;;80.50;53.23;;;102.70;2227.20;;;;;;4789852;30;20035;-93
2021/03/10 12:00:03;;;;;;;69.23;44.27;;;102.60;2227.20;;;;;;4796177;24;20396;-91
2021/03/10 12:02:29;;;;;;;81.65;49.80;;;102.70;2227.20;;;;;;4775412;30;20496;-91
2021/03/10 12:04:54;;;;;;;53.27;35.57;;;102.80;2227.20;;;;;;4771816;30;20050;-87
2021/03/10 12:11:28;;;;;;;;;;;;;;;;;;;;;
2021/03/10 12:14:00;;;;;;;56.00;36.50;;;102.70;2227.20;;;;;;4684087;30;20523;-93
2021/03/10 12:22:38;;;;;;;60.13;37.83;;;102.60;2227.20;;;;;;4747432;24;20107;-91
2021/03/10 12:30:09;;;;;;;65.83;41.60;;;102.50;2227.20;;;;;;4821569;24;20067;-92
2021/03/10 12:35:37;;;;;;;55.33;36.10;;;102.70;2227.20;;;;;;4808435;24;20066;-92
2021/03/10 12:38:17;;;;;;;76.03;48.17;;;102.70;2227.20;;;;;;4800284;24;20194;-92
2021/03/10 12:40:44;;;;;;;80.30;48.23;;;102.70;2227.20;;;;;;4798168;24;20031;-92
2021/03/10 12:43:10;;;;;;;84.30;54.90;;;102.70;2227.20;;;;;;4771320;30;20146;-92
2021/03/10 12:45:42;;;;;;;64.60;42.70;;;102.70;2227.20;;;;;;4756752;30;20075;-93
2021/03/10 12:48:09;;;;;;;53.93;38.53;;;102.70;2227.20;;;;;;4763970;24;20075;-93
2021/03/10 12:50:34;;;;;;;58.03;38.07;;;102.70;2227.20;;;;;;4757423;30;20031;-92
2021/03/10 12:53:00;;;;;;;51.80;33.07;;;102.90;2227.20;;;;;;4787133;24;20069;-92
2021/03/10 12:55:26;;;;;;;42.43;28.20;;;102.90;2227.20;;;;;;4774569;30;20500;-92
2021/03/10 12:57:52;;;;;;;38.80;25.30;;;102.90;2227.20;;;;;;4781812;24;20056;-91
2021/03/10 13:00:19;;;;;;;53.40;32.83;;;102.90;2227.20;;;;;;4766357;30;20126;-91
2021/03/10 13:02:57;;;;;;;52.30;35.80;;;77.70;2227.20;;;;;;4777383;30;20020;-92
2021/03/10 13:05:24;;;;;;;64.93;41.03;;;103.20;2227.20;;;;;;4773748;24;20063;-91
2021/03/10 13:07:56;;;;;;;52.00;33.17;;;102.90;2227.20;;;;;;4761621;30;20052;-92
2021/03/10 13:10:22;;;;;;;59.77;40.43;;;103.00;2227.20;;;;;;4991210;24;20066;-90
2021/03/10 13:12:54;;;;;;;54.87;35.40;;;103.10;2227.20;;;;;;4790812;29;20046;-91
2021/03/10 13:15:38;;;;;;;49.63;29.63;;;103.20;2227.20;;;;;;4793187;29;20058;-91
2021/03/10 13:20:42;;;;;;;47.57;35.83;;;103.30;2227.20;;;;;;4886604;24;20439;-82
2021/03/10 13:23:20;;;;;;;40.47;25.43;;;103.20;2227.20;;;;;;4792414;30;20103;-95
2021/03/10 13:26:01;;;;;;;40.40;24.73;;;103.20;2227.20;;;;;;4805003;24;20057;-96
2021/03/10 13:28:42;;;;;;;42.23;24.83;;;128.10;2252.80;;;;;;4770976;30;20103;-94
2021/03/10 13:31:17;;;;;;;47.73;27.30;;;103.20;2227.20;;;;;;4773022;30;20095;-95
2021/03/10 13:33:44;;;;;;;39.67;25.43;;;103.30;2227.20;;;;;;4774140;30;20035;-95
2021/03/10 13:36:13;;;;;;;45.70;29.67;;;128.00;2252.80;;;;;;4746904;30;20107;-96
2021/03/10 13:38:39;;;;;;;35.20;23.17;;;128.00;2252.80;;;;;;4780142;30;20043;-83
2021/03/10 13:41:11;;;;;;;43.20;23.90;;;103.30;2227.20;;;;;;4778757;30;20077;-91
2021/03/10 13:43:55;;;;;;;30.63;20.35;;;103.00;2227.20;;;;;;4775300;30;20127;-82
2021/03/10 13:46:21;;;;;;;36.90;21.50;;;103.00;2227.20;;;;;;4773939;30;20066;-87
2021/03/10 13:49:00;;;;;;;39.07;26.23;;;103.00;2227.20;;;;;;4775286;30;20426;-85
2021/03/10 13:51:32;;;;;;;58.70;34.13;;;103.00;2201.60;;;;;;4775456;30;20019;-85
2021/03/10 13:53:58;;;;;;;50.83;30.90;;;103.00;2227.20;;;;;;4774368;30;20027;-86
2021/03/10 13:59:06;;;;;;;52.67;31.47;;;102.80;2227.20;;;;;;4795542;24;20075;-90
2021/03/10 14:01:41;;;;;;;37.47;22.67;;;102.90;2227.20;;;;;;4761630;24;20051;-87
2021/03/10 14:04:19;;;;;;;60.00;37.80;;;102.90;2201.60;;;;;;4766855;30;20051;-86
2021/03/10 14:06:57;;;;;;;65.30;41.07;;;102.90;2227.20;;;;;;4772647;30;20039;-86
2021/03/10 14:12:00;;;;;;;36.80;23.80;;;103.00;2201.60;;;;;;4776399;24;20107;-87
2021/03/10 14:14:26;;;;;;;34.03;21.63;;;103.00;2176.00;;;;;;4758107;30;20074;-85
2021/03/10 14:17:01;;;;;;;51.23;31.30;;;103.00;2150.40;;;;;;4758928;30;20078;-86